Terminal Aerodrome Forecast
Issued by NWS Caribou, ME

Home | Current Version | Previous Version | Text Only | Print | Product List | Glossary On
Versions: 1 2 3 4 5 6 7 8 9 10 11 12 13 14 15
966
FTUS41 KCAR 280520
TAFBGR
TAF
KBGR 280520Z 2806/2906 19004KT P6SM SCT250
     FM281800 19007KT P6SM VCTS BKN040CB
     FM290100 18003KT P6SM SCT090
      TEMPO 2903/2906 3SM BR=

USA.gov is the U.S. government's official web portal to all federal, state and local government web resources and services.